Terminal Aerodrome Forecast
Issued by NWS North Platte, NE

Home | Current Version | Previous Version | Graphics & Text | Print | Product List | Glossary On
Versions: 1 2 3 4 5 6 7 8 9 10 11 12 13 14 15 16 17 18 19 20 21
034
FTUS43 KLBF 101731
TAFVTN
TAF
KVTN 101731Z 1018/1118 10012KT P6SM OVC015
      TEMPO 1018/1020 5SM -SN HZ OVC008
     FM102000 14008KT P6SM OVC015
     FM102300 10006KT 5SM -FZDZ OVC010
     FM110700 15004KT 5SM BR OVC010
     FM111400 32009KT P6SM BKN030=

USA.gov is the U.S. government's official web portal to all federal, state and local government web resources and services.